Time;durP1;ratioP1;P1;durP2;ratioP2;P2;SDS_P1;SDS_P2;PMS_P1;PMS_P2;Temp;Humidity;BMP_temperature;BMP_pressure;BME280_temperature;BME280_humidity;BME280_pressure;Samples;Min_cycle;Max_cycle;Signal;HPM_P1;HPM_P2
2021/10/17 00:00:19;;;;;;;21.75;16.35;;;8.50;99.90;;;;;;5019191;28;20680;-78
2021/10/17 00:02:47;;;;;;;22.02;16.00;;;8.50;99.90;;;;;;5019154;28;20249;-78
2021/10/17 00:05:15;;;;;;;24.08;15.80;;;8.50;99.90;;;;;;5018026;28;20226;-79
2021/10/17 00:07:42;;;;;;;24.52;16.83;;;8.50;99.90;;;;;;5017761;28;20210;-78
2021/10/17 00:10:14;;;;;;;25.80;16.77;;;8.40;99.90;;;;;;5017367;28;20686;-80
2021/10/17 00:12:42;;;;;;;25.15;16.98;;;8.40;99.90;;;;;;5017658;28;20441;-78
2021/10/17 00:15:11;;;;;;;23.70;15.40;;;8.20;99.90;;;;;;5017446;28;20210;-78
2021/10/17 00:17:38;;;;;;;23.40;16.95;;;8.40;99.90;;;;;;5018143;28;20233;-78
2021/10/17 00:20:09;;;;;;;22.37;15.70;;;8.40;99.90;;;;;;5018012;28;20325;-78
2021/10/17 00:22:36;;;;;;;23.30;15.98;;;8.30;99.90;;;;;;5018302;28;20439;-77
2021/10/17 00:25:03;;;;;;;25.37;17.17;;;8.70;99.90;;;;;;5024935;28;20212;-78
2021/10/17 00:27:31;;;;;;;24.43;16.53;;;8.50;99.90;;;;;;5030245;28;20471;-78
2021/10/17 00:29:58;;;;;;;23.17;16.10;;;8.30;99.90;;;;;;5018425;28;20456;-77
2021/10/17 00:32:25;;;;;;;20.92;15.95;;;8.40;99.90;;;;;;5022166;28;20427;-78
2021/10/17 00:34:52;;;;;;;25.00;15.95;;;8.00;99.90;;;;;;5022354;28;20206;-79
2021/10/17 00:37:19;;;;;;;22.88;16.02;;;8.40;99.90;;;;;;5019253;28;20245;-77
2021/10/17 00:39:46;;;;;;;23.88;15.75;;;8.10;99.90;;;;;;5016678;28;20212;-79
2021/10/17 00:42:14;;;;;;;23.17;16.50;;;8.30;99.90;;;;;;5017184;28;20213;-79
2021/10/17 00:44:43;;;;;;;22.30;15.35;;;8.30;99.90;;;;;;5017873;28;20214;-78
2021/10/17 00:47:10;;;;;;;24.17;15.53;;;8.40;99.90;;;;;;5031282;28;20229;-79
2021/10/17 00:49:37;;;;;;;23.17;16.27;;;8.20;99.90;;;;;;5019941;28;20527;-79
2021/10/17 00:52:04;;;;;;;22.67;15.60;;;8.40;99.90;;;;;;5019421;28;20451;-79
2021/10/17 00:54:31;;;;;;;21.67;16.00;;;8.20;99.90;;;;;;5018598;28;20681;-80
2021/10/17 00:56:58;;;;;;;23.40;16.77;;;8.20;99.90;;;;;;5017845;28;20282;-80
2021/10/17 00:59:25;;;;;;;25.27;17.27;;;8.10;99.90;;;;;;5019399;28;20277;-77
2021/10/17 01:01:53;;;;;;;24.90;17.88;;;8.00;99.90;;;;;;5016156;28;20208;-78
2021/10/17 01:04:20;;;;;;;25.10;16.90;;;8.10;99.90;;;;;;5016885;28;20211;-78
2021/10/17 01:06:47;;;;;;;24.23;16.95;;;8.10;99.90;;;;;;5017026;28;20315;-79
2021/10/17 01:09:13;;;;;;;23.80;15.48;;;8.30;99.90;;;;;;5016753;28;20288;-79
2021/10/17 01:11:42;;;;;;;25.15;17.75;;;8.20;99.90;;;;;;5017074;28;20215;-78
2021/10/17 01:14:09;;;;;;;22.90;15.88;;;8.10;99.90;;;;;;5017711;28;20704;-78
2021/10/17 01:16:38;;;;;;;22.70;15.57;;;8.40;99.90;;;;;;5016729;28;20622;-78
2021/10/17 01:19:06;;;;;;;21.45;16.52;;;8.30;99.90;;;;;;5016453;28;20542;-79
2021/10/17 01:21:37;;;;;;;26.23;15.80;;;8.30;99.90;;;;;;5017317;28;20210;-79
2021/10/17 01:24:04;;;;;;;24.05;17.13;;;8.50;99.90;;;;;;5017183;28;20205;-79
2021/10/17 01:26:31;;;;;;;22.30;16.70;;;8.30;99.90;;;;;;5016371;28;20234;-79
2021/10/17 01:28:58;;;;;;;23.52;17.00;;;8.40;99.90;;;;;;5016634;28;20741;-79
2021/10/17 01:31:34;;;;;;;27.95;17.65;;;8.10;99.90;;;;;;5016598;28;20247;-78
2021/10/17 01:34:01;;;;;;;22.30;16.35;;;8.40;99.90;;;;;;5016116;28;20244;-78
2021/10/17 01:36:28;;;;;;;29.38;17.42;;;8.10;99.90;;;;;;5015837;28;20233;-78
2021/10/17 01:38:56;;;;;;;22.80;16.02;;;8.30;99.90;;;;;;5017156;28;20235;-78
2021/10/17 01:41:23;;;;;;;25.02;17.42;;;8.20;99.90;;;;;;5018503;28;20765;-78
2021/10/17 01:43:50;;;;;;;22.25;16.35;;;8.20;99.90;;;;;;5018461;28;20303;-78
2021/10/17 01:46:17;;;;;;;21.90;15.10;;;8.10;99.90;;;;;;5016764;28;20324;-78
2021/10/17 01:48:43;;;;;;;27.25;18.67;;;8.20;99.90;;;;;;5016685;28;20210;-78
2021/10/17 01:51:10;;;;;;;23.63;17.20;;;8.30;99.90;;;;;;5017514;28;20219;-79
2021/10/17 01:53:37;;;;;;;24.33;17.15;;;8.30;99.90;;;;;;5016735;28;20459;-79
2021/10/17 01:56:05;;;;;;;21.85;16.38;;;8.30;99.90;;;;;;5016806;28;20301;-79
2021/10/17 01:58:32;;;;;;;25.00;18.13;;;8.30;99.90;;;;;;5015656;28;20316;-80
2021/10/17 02:01:00;;;;;;;23.88;17.90;;;8.30;99.90;;;;;;5016027;28;20215;-78
2021/10/17 02:03:27;;;;;;;22.52;16.33;;;8.30;99.90;;;;;;5016650;28;20209;-78
2021/10/17 02:05:53;;;;;;;25.73;17.77;;;8.40;99.90;;;;;;5015769;28;20249;-78
2021/10/17 02:08:20;;;;;;;23.33;16.80;;;8.40;99.90;;;;;;5015516;28;20701;-78
2021/10/17 02:10:47;;;;;;;26.05;17.67;;;8.30;99.90;;;;;;5015340;28;20458;-78
2021/10/17 02:13:16;;;;;;;23.80;17.17;;;8.60;99.90;;;;;;5015340;28;20693;-78
2021/10/17 02:15:43;;;;;;;25.33;17.00;;;8.40;99.90;;;;;;5016424;28;20480;-78
2021/10/17 02:18:09;;;;;;;23.33;17.23;;;8.70;99.90;;;;;;5015679;28;20788;-79
2021/10/17 02:20:36;;;;;;;25.73;16.40;;;8.60;99.90;;;;;;5015605;28;20213;-78
2021/10/17 02:23:04;;;;;;;23.23;17.45;;;8.50;99.90;;;;;;5015808;28;20309;-78
2021/10/17 02:25:30;;;;;;;24.00;16.75;;;8.70;99.90;;;;;;5014969;28;20618;-78
2021/10/17 02:27:57;;;;;;;23.38;16.30;;;8.40;99.90;;;;;;5015925;28;20291;-78
2021/10/17 02:30:26;;;;;;;21.23;15.45;;;8.60;99.90;;;;;;5023385;28;20218;-78
2021/10/17 02:32:53;;;;;;;22.77;16.97;;;8.50;99.90;;;;;;5020171;28;20231;-79
2021/10/17 02:35:19;;;;;;;23.92;16.17;;;8.30;99.90;;;;;;5015586;28;20486;-78
2021/10/17 02:37:47;;;;;;;21.83;16.17;;;8.50;99.90;;;;;;5015040;28;20233;-78
2021/10/17 02:40:14;;;;;;;21.50;15.38;;;8.40;99.90;;;;;;5015481;28;20639;-78
2021/10/17 02:42:40;;;;;;;24.13;17.33;;;8.70;99.90;;;;;;5015412;28;20211;-78
2021/10/17 02:45:08;;;;;;;21.43;16.23;;;8.80;99.90;;;;;;5015623;28;20976;-79
2021/10/17 02:47:36;;;;;;;19.17;15.47;;;8.90;99.90;;;;;;5019208;28;20945;-78
2021/10/17 02:50:04;;;;;;;23.97;16.70;;;8.80;99.90;;;;;;5021425;28;20455;-78
2021/10/17 02:52:31;;;;;;;22.52;16.52;;;8.80;99.90;;;;;;5030658;28;20458;-78
2021/10/17 02:54:57;;;;;;;22.15;16.10;;;8.80;99.90;;;;;;5019952;28;20233;-78
2021/10/17 02:57:24;;;;;;;22.00;16.00;;;8.70;99.90;;;;;;5018209;28;20209;-78
2021/10/17 02:59:51;;;;;;;20.20;15.20;;;8.70;99.90;;;;;;5018843;28;20491;-79
2021/10/17 03:02:18;;;;;;;23.48;16.85;;;8.80;99.90;;;;;;5018503;28;20471;-79
2021/10/17 03:04:46;;;;;;;25.33;17.13;;;8.70;99.90;;;;;;5018807;28;20209;-78
2021/10/17 03:07:13;;;;;;;19.98;15.63;;;8.80;99.90;;;;;;5018686;28;20468;-78
2021/10/17 03:09:40;;;;;;;18.75;14.02;;;8.70;99.90;;;;;;5018650;28;20206;-78
2021/10/17 03:12:07;;;;;;;20.43;15.80;;;8.80;99.90;;;;;;5019067;28;20309;-78
2021/10/17 03:14:34;;;;;;;22.67;16.70;;;8.70;99.90;;;;;;5019192;28;20444;-79
2021/10/17 03:17:01;;;;;;;21.30;15.75;;;8.80;99.90;;;;;;5018709;28;20563;-78
2021/10/17 03:19:27;;;;;;;20.52;16.10;;;8.90;99.90;;;;;;5018822;28;20226;-78
2021/10/17 03:21:56;;;;;;;22.17;16.35;;;8.70;99.90;;;;;;5020925;28;20214;-78
2021/10/17 03:24:22;;;;;;;20.03;15.33;;;8.70;99.90;;;;;;5020147;28;20209;-79
2021/10/17 03:26:49;;;;;;;22.47;16.30;;;8.80;99.90;;;;;;5040319;23;20478;-77
2021/10/17 03:29:16;;;;;;;20.10;15.30;;;8.80;99.90;;;;;;5016224;28;20798;-77
2021/10/17 03:31:43;;;;;;;20.42;15.95;;;8.80;99.90;;;;;;5015853;28;20452;-77
2021/10/17 03:34:10;;;;;;;21.30;16.85;;;8.90;99.90;;;;;;5016359;28;20254;-76
2021/10/17 03:36:37;;;;;;;21.80;15.75;;;8.90;99.90;;;;;;5016110;28;20392;-76
2021/10/17 03:39:05;;;;;;;20.10;15.90;;;8.90;99.90;;;;;;5015828;28;20243;-77
2021/10/17 03:41:32;;;;;;;21.00;16.67;;;8.80;99.90;;;;;;5015973;28;20460;-77
2021/10/17 03:43:59;;;;;;;22.77;17.52;;;8.70;99.90;;;;;;5015762;28;20437;-77
2021/10/17 03:46:26;;;;;;;22.65;15.88;;;8.70;99.90;;;;;;5015632;28;20264;-78
2021/10/17 03:48:53;;;;;;;24.20;17.97;;;8.60;99.90;;;;;;5016364;28;20244;-77
2021/10/17 03:51:19;;;;;;;23.23;17.30;;;8.50;99.90;;;;;;5015889;28;20810;-77
2021/10/17 03:53:46;;;;;;;21.75;16.17;;;8.60;99.90;;;;;;5015605;28;20454;-77
2021/10/17 03:56:14;;;;;;;21.35;16.90;;;8.30;99.90;;;;;;5015593;28;20304;-77
2021/10/17 03:58:41;;;;;;;23.30;17.37;;;8.70;99.90;;;;;;5015092;28;20225;-77
2021/10/17 04:01:09;;;;;;;20.52;15.77;;;8.70;99.90;;;;;;5015274;28;20431;-77
2021/10/17 04:03:36;;;;;;;19.53;15.53;;;8.50;99.90;;;;;;5015340;28;20214;-77
2021/10/17 04:06:03;;;;;;;23.10;15.73;;;8.70;99.90;;;;;;5015310;28;20570;-77
2021/10/17 04:08:30;;;;;;;21.10;16.83;;;8.70;99.90;;;;;;5014938;28;20423;-77
2021/10/17 04:10:56;;;;;;;21.60;16.17;;;8.70;99.90;;;;;;5014915;28;20695;-78
2021/10/17 04:13:25;;;;;;;21.37;16.03;;;8.60;99.90;;;;;;5015178;28;20231;-77
2021/10/17 04:15:51;;;;;;;24.23;16.30;;;8.60;99.90;;;;;;5018045;28;20473;-77
2021/10/17 04:18:18;;;;;;;21.40;15.75;;;8.70;99.90;;;;;;5028296;28;20235;-76
2021/10/17 04:20:45;;;;;;;22.80;16.48;;;8.50;99.90;;;;;;5016718;28;20210;-77
2021/10/17 04:23:12;;;;;;;21.77;16.73;;;8.60;99.90;;;;;;5014615;28;20217;-77
2021/10/17 04:25:38;;;;;;;24.17;16.60;;;8.70;99.90;;;;;;5014690;28;20827;-77
2021/10/17 04:28:05;;;;;;;23.42;16.33;;;8.60;99.90;;;;;;5015132;28;20427;-77
2021/10/17 04:30:33;;;;;;;21.55;16.55;;;8.80;99.90;;;;;;5015126;28;20670;-77
2021/10/17 04:33:00;;;;;;;22.10;16.43;;;8.90;99.90;;;;;;5016204;28;20208;-77
2021/10/17 04:35:28;;;;;;;19.98;16.05;;;9.00;99.90;;;;;;5014837;28;20992;-77
2021/10/17 04:37:55;;;;;;;18.88;14.25;;;9.00;99.90;;;;;;5014474;28;20208;-77
2021/10/17 04:40:23;;;;;;;22.48;16.38;;;8.70;99.90;;;;;;5015170;28;20233;-77
2021/10/17 04:42:50;;;;;;;20.08;16.10;;;8.60;99.90;;;;;;5014874;28;20643;-77
2021/10/17 04:45:17;;;;;;;20.98;15.52;;;8.50;99.90;;;;;;5014848;28;20288;-77
2021/10/17 04:47:45;;;;;;;19.38;15.85;;;8.60;99.90;;;;;;5014624;28;20206;-77
2021/10/17 04:50:11;;;;;;;20.33;16.43;;;8.60;99.90;;;;;;5014837;28;20211;-77
2021/10/17 04:52:38;;;;;;;21.33;16.80;;;8.80;99.90;;;;;;5014192;28;20469;-77
2021/10/17 04:55:08;;;;;;;21.13;16.92;;;8.70;99.90;;;;;;5014542;28;20204;-77
2021/10/17 04:57:34;;;;;;;24.20;16.98;;;8.80;99.90;;;;;;5014750;28;20222;-77
2021/10/17 05:00:02;;;;;;;20.90;15.98;;;8.70;99.90;;;;;;5014441;28;20232;-77
2021/10/17 05:02:28;;;;;;;22.07;17.67;;;8.60;99.90;;;;;;5014484;28;20209;-77
2021/10/17 05:04:57;;;;;;;22.57;17.40;;;8.60;99.90;;;;;;5014443;28;20456;-77
2021/10/17 05:07:23;;;;;;;21.70;16.48;;;8.60;99.90;;;;;;5014043;28;20471;-77
2021/10/17 05:09:50;;;;;;;23.67;16.45;;;8.60;99.90;;;;;;5014597;28;20215;-77
2021/10/17 05:12:17;;;;;;;22.00;16.60;;;8.20;99.90;;;;;;5014313;28;20221;-77
2021/10/17 05:14:44;;;;;;;22.40;16.67;;;8.60;99.90;;;;;;5014563;28;20205;-77
2021/10/17 05:17:10;;;;;;;19.65;15.82;;;8.70;99.90;;;;;;5013922;28;20744;-77
2021/10/17 05:19:37;;;;;;;20.20;16.03;;;8.70;99.90;;;;;;5013850;28;20229;-77
2021/10/17 05:22:05;;;;;;;18.83;14.52;;;8.70;99.90;;;;;;5014048;28;20449;-77
2021/10/17 05:24:32;;;;;;;24.45;16.73;;;8.70;99.90;;;;;;5013691;28;20693;-77
2021/10/17 05:26:59;;;;;;;20.92;15.90;;;8.70;99.90;;;;;;5013909;28;20324;-77
2021/10/17 05:29:26;;;;;;;21.55;17.52;;;8.90;99.90;;;;;;5013556;28;20209;-77
2021/10/17 05:31:53;;;;;;;18.40;15.23;;;8.90;99.90;;;;;;5013735;28;20209;-77
2021/10/17 05:34:19;;;;;;;19.50;15.80;;;8.90;99.90;;;;;;5014201;28;20449;-77
2021/10/17 05:36:46;;;;;;;23.90;16.60;;;8.80;99.90;;;;;;5013395;28;20469;-77
2021/10/17 05:39:14;;;;;;;21.50;15.55;;;8.80;99.90;;;;;;5013607;28;20840;-77
2021/10/17 05:41:41;;;;;;;23.73;16.50;;;8.50;99.90;;;;;;5013788;28;20220;-77
2021/10/17 05:44:08;;;;;;;22.45;16.02;;;9.00;99.90;;;;;;5015436;28;20453;-77
2021/10/17 05:46:35;;;;;;;19.67;14.97;;;9.00;99.90;;;;;;5014438;28;20236;-77
2021/10/17 05:49:01;;;;;;;21.33;16.30;;;9.00;99.90;;;;;;5013949;28;20906;-77
2021/10/17 05:51:28;;;;;;;19.23;15.87;;;8.90;99.90;;;;;;5013605;28;20457;-77
2021/10/17 05:53:55;;;;;;;20.02;16.27;;;8.90;99.90;;;;;;5013508;28;20438;-77
2021/10/17 05:56:23;;;;;;;21.23;15.93;;;8.80;99.90;;;;;;5014127;28;20233;-77
2021/10/17 05:58:50;;;;;;;21.73;17.23;;;8.80;99.90;;;;;;5015707;28;20523;-77
2021/10/17 06:01:17;;;;;;;20.38;16.30;;;8.60;99.90;;;;;;5014837;28;20452;-77
2021/10/17 06:03:43;;;;;;;22.33;16.95;;;8.60;99.90;;;;;;5013822;28;20210;-77
2021/10/17 06:06:12;;;;;;;22.20;17.10;;;8.70;99.90;;;;;;5025300;28;20336;-77
2021/10/17 06:08:39;;;;;;;20.00;17.10;;;8.80;99.90;;;;;;5020836;28;20447;-77
2021/10/17 06:11:06;;;;;;;20.67;16.48;;;8.80;99.90;;;;;;5014545;28;20210;-77
2021/10/17 06:13:35;;;;;;;23.13;16.80;;;8.60;99.90;;;;;;5014906;28;20210;-77
2021/10/17 06:16:02;;;;;;;20.80;17.73;;;8.50;99.90;;;;;;5017076;28;20781;-77
2021/10/17 06:18:31;;;;;;;24.48;18.45;;;8.60;99.90;;;;;;5014539;28;20456;-77
2021/10/17 06:20:57;;;;;;;21.75;16.17;;;8.60;99.90;;;;;;5015542;28;20328;-77
2021/10/17 06:23:24;;;;;;;20.30;16.75;;;8.60;99.90;;;;;;5017594;28;20215;-77
2021/10/17 06:25:51;;;;;;;20.53;14.40;;;8.60;99.90;;;;;;5017637;28;20331;-78
2021/10/17 06:28:18;;;;;;;19.50;15.45;;;8.90;99.90;;;;;;5018084;28;20459;-78
2021/10/17 06:30:46;;;;;;;18.73;15.05;;;8.80;99.90;;;;;;5019387;28;20205;-78
2021/10/17 06:33:13;;;;;;;21.97;15.60;;;8.50;99.90;;;;;;5020860;28;20206;-78
2021/10/17 06:35:39;;;;;;;20.40;15.40;;;8.50;99.90;;;;;;5017794;28;20471;-78
2021/10/17 06:38:06;;;;;;;22.30;16.80;;;8.60;99.90;;;;;;5018003;28;20205;-77
2021/10/17 06:40:33;;;;;;;19.70;15.52;;;8.40;99.90;;;;;;5017755;28;20484;-78
2021/10/17 06:43:00;;;;;;;21.33;16.55;;;8.50;99.90;;;;;;5016977;28;20219;-77
2021/10/17 06:45:27;;;;;;;20.17;15.65;;;8.60;99.90;;;;;;5016930;28;20213;-77
2021/10/17 06:47:55;;;;;;;18.17;15.25;;;8.30;99.90;;;;;;5016854;28;20209;-77
2021/10/17 06:50:22;;;;;;;21.13;15.15;;;8.60;99.90;;;;;;5017260;28;20231;-77
2021/10/17 06:52:49;;;;;;;19.90;15.77;;;8.70;99.90;;;;;;5016686;28;20677;-77
2021/10/17 06:55:15;;;;;;;18.90;14.50;;;8.80;99.90;;;;;;5016432;28;20209;-77
2021/10/17 06:57:43;;;;;;;21.17;15.23;;;8.80;99.90;;;;;;5016841;28;20457;-77
2021/10/17 07:00:10;;;;;;;19.15;15.55;;;9.00;99.90;;;;;;5016658;28;20487;-78
2021/10/17 07:02:37;;;;;;;19.58;15.80;;;8.40;99.90;;;;;;5017188;28;20245;-76
2021/10/17 07:05:06;;;;;;;17.20;13.40;;;8.80;99.90;;;;;;5016699;28;20700;-76
2021/10/17 07:07:33;;;;;;;21.93;16.63;;;8.90;99.90;;;;;;5016478;28;20428;-77
2021/10/17 07:10:00;;;;;;;19.07;15.87;;;8.90;99.90;;;;;;5016653;28;20937;-76
2021/10/17 07:12:27;;;;;;;22.15;17.63;;;9.00;99.90;;;;;;5018558;28;20451;-76
2021/10/17 07:14:54;;;;;;;21.90;16.00;;;8.80;99.90;;;;;;5017553;28;20209;-77
2021/10/17 07:17:21;;;;;;;21.10;17.53;;;8.70;99.90;;;;;;5015986;28;20536;-77
2021/10/17 07:19:48;;;;;;;19.87;16.30;;;8.70;99.90;;;;;;5016264;28;20986;-76
2021/10/17 07:22:16;;;;;;;20.25;15.38;;;8.50;99.90;;;;;;5016444;28;20578;-76
2021/10/17 07:24:43;;;;;;;22.93;16.30;;;9.00;99.90;;;;;;5016325;28;20226;-77
2021/10/17 07:27:10;;;;;;;21.33;16.10;;;9.00;99.90;;;;;;5015815;28;20575;-77
2021/10/17 07:29:37;;;;;;;22.00;17.50;;;8.80;99.90;;;;;;5016351;28;20429;-77
2021/10/17 07:32:04;;;;;;;20.40;17.00;;;8.80;99.90;;;;;;5015820;28;20212;-77
2021/10/17 07:34:31;;;;;;;23.90;17.48;;;8.90;99.90;;;;;;5016037;28;20452;-77
2021/10/17 07:36:58;;;;;;;26.50;18.03;;;8.80;99.90;;;;;;5015842;28;20229;-77
2021/10/17 07:39:26;;;;;;;21.10;16.40;;;8.90;99.90;;;;;;5015891;28;20495;-77
2021/10/17 07:41:53;;;;;;;19.60;16.57;;;9.00;99.90;;;;;;5016338;28;20463;-77
2021/10/17 07:44:20;;;;;;;23.17;17.00;;;8.70;99.90;;;;;;5015660;28;20461;-77
2021/10/17 07:46:46;;;;;;;26.83;17.90;;;8.80;99.90;;;;;;5015608;28;20487;-77
2021/10/17 07:49:14;;;;;;;22.53;17.70;;;9.00;99.90;;;;;;5016007;28;20540;-78
2021/10/17 07:51:41;;;;;;;33.67;24.77;;;8.80;99.90;;;;;;5016756;28;20464;-78
2021/10/17 07:54:08;;;;;;;23.50;16.63;;;8.90;99.90;;;;;;5022798;28;20230;-75
2021/10/17 07:56:36;;;;;;;22.45;16.02;;;8.90;99.90;;;;;;5027122;28;20471;-78
2021/10/17 07:59:03;;;;;;;21.10;17.23;;;9.00;99.90;;;;;;5017512;28;20583;-78
2021/10/17 08:01:30;;;;;;;24.67;17.58;;;9.10;99.90;;;;;;5015570;28;20237;-78
2021/10/17 08:03:57;;;;;;;28.63;22.10;;;9.00;99.90;;;;;;5018381;28;20206;-78
2021/10/17 08:06:24;;;;;;;21.50;17.17;;;9.10;99.90;;;;;;5025498;28;20469;-78
2021/10/17 08:08:50;;;;;;;19.90;16.13;;;8.90;99.90;;;;;;5024390;28;20452;-77
2021/10/17 08:11:17;;;;;;;20.73;16.15;;;9.20;99.90;;;;;;5023537;28;20460;-78
2021/10/17 08:13:45;;;;;;;21.57;16.90;;;9.30;99.90;;;;;;5017681;28;20210;-78
2021/10/17 08:16:13;;;;;;;22.07;17.40;;;9.40;99.90;;;;;;5017544;28;20526;-78
2021/10/17 08:18:40;;;;;;;24.37;17.13;;;9.60;99.90;;;;;;5016761;28;20449;-77
2021/10/17 08:21:07;;;;;;;22.23;17.67;;;9.70;99.90;;;;;;5016072;28;20492;-78
2021/10/17 08:23:34;;;;;;;21.60;16.77;;;9.80;99.90;;;;;;5016584;28;20463;-78
2021/10/17 08:26:00;;;;;;;19.47;16.43;;;9.80;99.90;;;;;;5016523;28;20550;-78
2021/10/17 08:28:28;;;;;;;22.57;16.10;;;9.70;99.90;;;;;;5017486;28;20496;-77
2021/10/17 08:30:58;;;;;;;21.50;16.67;;;9.80;99.90;;;;;;5015996;28;20450;-78
2021/10/17 08:33:26;;;;;;;21.63;16.73;;;9.90;99.90;;;;;;5016963;28;20819;-78
2021/10/17 08:35:53;;;;;;;19.10;15.90;;;9.70;99.90;;;;;;5015947;28;20481;-78
2021/10/17 08:38:20;;;;;;;19.70;15.23;;;9.70;99.90;;;;;;5018526;28;20439;-78
2021/10/17 08:40:49;;;;;;;19.00;15.33;;;9.80;99.90;;;;;;5016667;28;20556;-78
2021/10/17 08:43:16;;;;;;;20.77;16.37;;;10.00;99.90;;;;;;5017371;28;20441;-77
2021/10/17 08:45:44;;;;;;;20.60;16.30;;;9.70;99.90;;;;;;5015327;28;20524;-77
2021/10/17 08:48:13;;;;;;;23.83;17.67;;;9.60;99.90;;;;;;5015827;28;20460;-78
2021/10/17 08:50:40;;;;;;;21.50;16.63;;;9.50;99.90;;;;;;5016562;28;20472;-78
2021/10/17 08:53:07;;;;;;;26.90;16.33;;;9.80;99.90;;;;;;5016789;28;20457;-79
2021/10/17 08:55:34;;;;;;;19.77;15.33;;;9.90;99.90;;;;;;5018606;28;20473;-77
2021/10/17 08:58:01;;;;;;;23.37;17.43;;;9.80;99.90;;;;;;5018817;28;20515;-78
2021/10/17 09:00:29;;;;;;;21.80;16.97;;;9.80;99.90;;;;;;5017110;28;20559;-78
2021/10/17 09:02:56;;;;;;;24.27;17.90;;;9.70;99.90;;;;;;5016526;28;20450;-78
2021/10/17 09:05:36;;;;;;;22.77;16.80;;;9.60;99.90;;;;;;5016578;28;20552;-78
2021/10/17 09:08:03;;;;;;;22.73;18.10;;;9.60;99.90;;;;;;5015175;28;20540;-78
2021/10/17 09:10:30;;;;;;;21.40;17.53;;;9.60;99.90;;;;;;5015096;28;20450;-78
2021/10/17 09:13:08;;;;;;;22.20;16.90;;;9.60;99.90;;;;;;5014965;28;20453;-78
2021/10/17 09:15:36;;;;;;;25.97;19.47;;;9.70;99.90;;;;;;5015163;28;20473;-79
2021/10/17 09:18:05;;;;;;;24.40;19.07;;;9.70;99.90;;;;;;5015264;28;20507;-77
2021/10/17 09:20:34;;;;;;;23.20;17.70;;;9.70;99.90;;;;;;5015033;28;20495;-77
2021/10/17 09:23:02;;;;;;;21.60;17.20;;;9.70;99.90;;;;;;5014854;28;20457;-78
2021/10/17 09:27:54;;;;;;;24.87;18.27;;;9.50;99.90;;;;;;5033114;23;20524;-77
2021/10/17 09:30:21;;;;;;;25.43;19.13;;;9.60;99.90;;;;;;5017481;28;20611;-78
2021/10/17 09:32:48;;;;;;;26.27;18.93;;;9.60;99.90;;;;;;5017090;28;21008;-78
2021/10/17 09:35:16;;;;;;;27.93;19.90;;;9.70;99.90;;;;;;5017419;28;20452;-78
2021/10/17 09:37:45;;;;;;;24.50;18.20;;;9.80;99.90;;;;;;5017442;28;20477;-78
2021/10/17 09:40:18;;;;;;;24.70;19.67;;;9.90;99.90;;;;;;5018384;28;20488;-78
2021/10/17 09:43:01;;;;;;;26.13;19.10;;;9.90;99.90;;;;;;5018094;28;20427;-78
2021/10/17 09:45:28;;;;;;;22.70;16.80;;;9.90;99.90;;;;;;5018916;28;20515;-79
2021/10/17 09:47:54;;;;;;;27.70;20.30;;;10.00;99.90;;;;;;5018714;28;20449;-79
2021/10/17 09:50:22;;;;;;;21.30;17.40;;;10.00;99.90;;;;;;5027693;28;20496;-78
2021/10/17 09:53:11;;;;;;;23.93;16.77;;;10.00;99.90;;;;;;5035403;28;20441;-78
2021/10/17 09:55:38;;;;;;;24.57;18.43;;;10.00;99.90;;;;;;5020577;28;20449;-79
2021/10/17 09:58:06;;;;;;;24.40;17.97;;;10.00;99.90;;;;;;5031639;28;20441;-78
2021/10/17 10:00:36;;;;;;;23.30;15.70;;;10.10;99.90;;;;;;5028146;28;20591;-78
2021/10/17 10:03:07;;;;;;;27.07;18.30;;;10.20;99.90;;;;;;5017903;28;20544;-79
2021/10/17 10:05:35;;;;;;;26.17;19.57;;;10.10;99.90;;;;;;5017208;28;20452;-79
2021/10/17 10:08:03;;;;;;;27.27;19.43;;;10.10;99.90;;;;;;5020104;28;20550;-78
2021/10/17 10:10:32;;;;;;;24.43;18.80;;;10.20;99.90;;;;;;5020842;28;20462;-79
2021/10/17 10:13:04;;;;;;;26.50;19.23;;;10.20;99.90;;;;;;5018059;28;20441;-79
2021/10/17 10:15:32;;;;;;;29.23;20.80;;;10.20;99.90;;;;;;5019081;28;20553;-78
2021/10/17 10:17:59;;;;;;;25.63;18.60;;;10.20;99.90;;;;;;5017638;28;20453;-78
2021/10/17 10:20:27;;;;;;;23.40;18.50;;;10.20;99.90;;;;;;5019919;28;20584;-79
2021/10/17 10:22:55;;;;;;;25.40;18.83;;;10.30;99.90;;;;;;5017354;28;20454;-79
2021/10/17 10:25:22;;;;;;;24.83;19.10;;;10.20;99.90;;;;;;5018026;28;20460;-79
2021/10/17 10:27:51;;;;;;;29.67;22.80;;;10.30;99.90;;;;;;5019264;28;20567;-79
2021/10/17 10:30:24;;;;;;;25.40;19.13;;;10.40;99.90;;;;;;5018885;28;20440;-79
2021/10/17 10:33:13;;;;;;;26.77;19.87;;;10.60;99.90;;;;;;5017678;28;20524;-79
2021/10/17 10:36:09;;;;;;;24.37;18.53;;;10.70;99.90;;;;;;5032278;28;20467;-78
2021/10/17 10:39:16;;;;;;;23.20;16.40;;;10.80;99.90;;;;;;5017022;28;20957;-79
2021/10/17 10:41:57;;;;;;;27.03;19.50;;;10.90;99.90;;;;;;5016832;28;20485;-79
2021/10/17 10:44:28;;;;;;;24.73;20.20;;;11.00;99.90;;;;;;5017940;28;20500;-78
2021/10/17 10:46:58;;;;;;;22.33;15.27;;;11.00;99.90;;;;;;5016258;28;20476;-78
2021/10/17 10:49:42;;;;;;;24.83;16.37;;;11.30;99.90;;;;;;5018737;28;20442;-78
2021/10/17 10:52:11;;;;;;;25.03;16.80;;;11.20;99.90;;;;;;5017922;28;20453;-78
2021/10/17 10:54:38;;;;;;;25.87;19.03;;;11.10;99.90;;;;;;5016715;28;20433;-78
2021/10/17 10:57:19;;;;;;;20.47;14.70;;;11.20;99.90;;;;;;5016977;28;20539;-79
2021/10/17 11:00:06;;;;;;;23.27;16.17;;;11.10;99.90;;;;;;5017440;28;20450;-78
2021/10/17 11:02:36;;;;;;;24.07;17.93;;;11.00;99.90;;;;;;5026624;28;20429;-78
2021/10/17 11:05:07;;;;;;;29.33;20.80;;;11.00;99.90;;;;;;5020413;28;20517;-78
2021/10/17 11:07:42;;;;;;;26.23;17.57;;;11.00;99.90;;;;;;5024318;28;20508;-78
2021/10/17 11:10:43;;;;;;;32.20;21.33;;;11.00;99.90;;;;;;5026054;28;20535;-78
2021/10/17 11:13:26;;;;;;;30.13;21.43;;;10.90;99.90;;;;;;5025206;28;20437;-78
2021/10/17 11:15:55;;;;;;;32.23;22.47;;;10.90;99.90;;;;;;5027653;28;20448;-79
2021/10/17 11:18:34;;;;;;;34.17;21.20;;;11.10;99.90;;;;;;5023322;28;20913;-79
2021/10/17 11:21:01;;;;;;;25.97;21.13;;;11.20;99.90;;;;;;5022335;28;20470;-79
2021/10/17 11:23:33;;;;;;;26.77;19.93;;;11.30;99.90;;;;;;5020860;28;20500;-79
2021/10/17 11:26:01;;;;;;;25.83;20.47;;;11.60;99.90;;;;;;5021198;28;20463;-79
2021/10/17 11:28:29;;;;;;;27.73;22.33;;;11.60;99.90;;;;;;5020999;28;20449;-79
2021/10/17 11:31:06;;;;;;;25.50;20.10;;;11.60;99.90;;;;;;5020571;28;20428;-79
2021/10/17 11:33:34;;;;;;;25.50;19.73;;;11.40;99.90;;;;;;5019401;28;20416;-78
2021/10/17 11:36:01;;;;;;;29.37;22.20;;;11.70;99.90;;;;;;5017980;28;20452;-80
2021/10/17 11:38:28;;;;;;;28.73;22.60;;;11.70;99.90;;;;;;5020877;28;20536;-80
2021/10/17 11:41:08;;;;;;;25.93;20.90;;;11.50;99.90;;;;;;5020666;28;20488;-80
2021/10/17 11:43:39;;;;;;;25.20;19.83;;;11.40;99.90;;;;;;5018591;28;20408;-78
2021/10/17 11:46:09;;;;;;;25.30;18.83;;;11.40;99.90;;;;;;5019206;28;20817;-78
2021/10/17 11:48:38;;;;;;;28.20;21.50;;;11.40;99.90;;;;;;5019176;28;20438;-77
2021/10/17 11:51:06;;;;;;;23.93;16.83;;;11.60;99.90;;;;;;5018406;28;20416;-78
2021/10/17 11:53:34;;;;;;;24.73;18.40;;;11.60;99.90;;;;;;5019557;28;20962;-78
2021/10/17 11:56:01;;;;;;;23.67;18.23;;;11.50;99.90;;;;;;5020653;28;20487;-78
2021/10/17 11:58:30;;;;;;;24.93;18.07;;;11.50;99.90;;;;;;5019164;28;20453;-78
2021/10/17 12:00:58;;;;;;;24.07;18.07;;;11.60;99.90;;;;;;5019782;28;20539;-79
2021/10/17 12:03:26;;;;;;;22.77;17.53;;;11.70;99.90;;;;;;5018500;28;20465;-78
2021/10/17 12:05:54;;;;;;;22.40;16.57;;;11.70;99.90;;;;;;5019215;28;20452;-80
2021/10/17 12:08:23;;;;;;;21.83;15.20;;;11.80;99.90;;;;;;5018469;28;20544;-80
2021/10/17 12:10:58;;;;;;;21.37;16.77;;;11.90;99.90;;;;;;5016450;28;20454;-78
2021/10/17 12:13:25;;;;;;;23.77;17.77;;;11.60;99.90;;;;;;5017554;28;20461;-78
2021/10/17 12:16:03;;;;;;;21.53;17.40;;;11.60;99.90;;;;;;5017281;28;20456;-79
2021/10/17 12:18:32;;;;;;;23.70;18.87;;;11.60;99.90;;;;;;5018216;28;20440;-79
2021/10/17 12:20:59;;;;;;;25.33;17.77;;;11.90;99.90;;;;;;5017613;28;20475;-79
2021/10/17 12:23:26;;;;;;;21.13;16.80;;;12.00;99.90;;;;;;5017945;28;20469;-78
2021/10/17 12:25:53;;;;;;;19.80;15.10;;;12.20;99.90;;;;;;5017315;28;20470;-79
2021/10/17 12:28:20;;;;;;;26.03;19.30;;;12.30;99.90;;;;;;5018429;28;20470;-78
2021/10/17 12:30:49;;;;;;;24.00;18.80;;;12.00;99.90;;;;;;5017424;28;20465;-78
2021/10/17 12:33:28;;;;;;;25.03;18.30;;;12.00;99.90;;;;;;5017625;28;20454;-78
2021/10/17 12:35:57;;;;;;;23.90;17.23;;;12.00;99.90;;;;;;5018893;28;20473;-78
2021/10/17 12:38:31;;;;;;;26.70;19.17;;;11.90;99.90;;;;;;5025255;28;20531;-78
2021/10/17 12:41:00;;;;;;;27.07;20.13;;;11.90;99.90;;;;;;5018343;28;20449;-78
2021/10/17 12:43:30;;;;;;;26.83;19.00;;;11.80;99.90;;;;;;5018432;28;20454;-79